sensor_id;sensor_type;location;lat;lon;timestamp;pressure;altitude;pressure_sealevel;temperature;humidity
60170;BME280;46042;49.444;6.862;2024-02-26T00:01:12;96616.31;;;6.21;93.64
60170;BME280;46042;49.444;6.862;2024-02-26T00:03:39;96606.47;;;6.14;93.99
60170;BME280;46042;49.444;6.862;2024-02-26T00:06:08;96600.41;;;6.13;93.15
60170;BME280;46042;49.444;6.862;2024-02-26T00:08:35;96601.22;;;6.14;94.72
60170;BME280;46042;49.444;6.862;2024-02-26T00:11:02;96604.25;;;6.09;98.57
60170;BME280;46042;49.444;6.862;2024-02-26T00:13:36;96604.00;;;6.12;97.50
60170;BME280;46042;49.444;6.862;2024-02-26T00:16:06;96602.44;;;6.09;97.60
60170;BME280;46042;49.444;6.862;2024-02-26T00:18:34;96597.47;;;6.06;98.88
60170;BME280;46042;49.444;6.862;2024-02-26T00:21:02;96596.25;;;5.99;98.18
60170;BME280;46042;49.444;6.862;2024-02-26T00:23:29;96607.66;;;5.98;97.21
60170;BME280;46042;49.444;6.862;2024-02-26T00:25:57;96608.41;;;6.00;97.16
60170;BME280;46042;49.444;6.862;2024-02-26T00:28:24;96610.16;;;6.00;98.10
60170;BME280;46042;49.444;6.862;2024-02-26T00:30:51;96611.22;;;5.97;99.04
60170;BME280;46042;49.444;6.862;2024-02-26T00:33:22;96604.59;;;5.93;98.66
60170;BME280;46042;49.444;6.862;2024-02-26T00:35:50;96607.78;;;5.96;100.00
60170;BME280;46042;49.444;6.862;2024-02-26T00:38:17;96621.34;;;5.90;100.00
60170;BME280;46042;49.444;6.862;2024-02-26T00:40:43;96611.47;;;5.94;100.00
60170;BME280;46042;49.444;6.862;2024-02-26T00:43:10;96617.19;;;5.88;100.00
60170;BME280;46042;49.444;6.862;2024-02-26T00:45:37;96608.78;;;5.84;100.00
60170;BME280;46042;49.444;6.862;2024-02-26T00:48:05;96606.16;;;5.84;100.00
60170;BME280;46042;49.444;6.862;2024-02-26T00:50:32;96606.75;;;5.76;100.00
60170;BME280;46042;49.444;6.862;2024-02-26T00:52:59;96611.53;;;5.82;100.00
60170;BME280;46042;49.444;6.862;2024-02-26T00:55:26;96601.06;;;5.82;100.00
60170;BME280;46042;49.444;6.862;2024-02-26T00:57:53;96609.38;;;5.76;100.00
60170;BME280;46042;49.444;6.862;2024-02-26T01:00:20;96604.75;;;5.80;100.00
60170;BME280;46042;49.444;6.862;2024-02-26T01:02:47;96611.63;;;5.81;100.00
60170;BME280;46042;49.444;6.862;2024-02-26T01:05:15;96608.66;;;5.74;100.00
60170;BME280;46042;49.444;6.862;2024-02-26T01:07:45;96611.16;;;5.76;100.00
60170;BME280;46042;49.444;6.862;2024-02-26T01:10:12;96604.66;;;5.70;100.00
60170;BME280;46042;49.444;6.862;2024-02-26T01:12:39;96608.91;;;5.71;100.00
60170;BME280;46042;49.444;6.862;2024-02-26T01:15:06;96599.88;;;5.64;100.00
60170;BME280;46042;49.444;6.862;2024-02-26T01:17:33;96600.03;;;5.62;100.00
60170;BME280;46042;49.444;6.862;2024-02-26T01:20:00;96600.72;;;5.64;100.00
60170;BME280;46042;49.444;6.862;2024-02-26T01:22:27;96604.06;;;5.55;100.00
60170;BME280;46042;49.444;6.862;2024-02-26T01:24:54;96608.69;;;5.51;100.00
60170;BME280;46042;49.444;6.862;2024-02-26T01:27:21;96609.75;;;5.49;100.00
60170;BME280;46042;49.444;6.862;2024-02-26T01:29:53;96618.75;;;5.56;100.00
60170;BME280;46042;49.444;6.862;2024-02-26T01:32:20;96616.66;;;5.50;100.00
60170;BME280;46042;49.444;6.862;2024-02-26T01:34:47;96618.78;;;5.45;100.00
60170;BME280;46042;49.444;6.862;2024-02-26T01:37:14;96627.44;;;5.45;100.00
60170;BME280;46042;49.444;6.862;2024-02-26T01:39:41;96604.19;;;5.42;100.00
60170;BME280;46042;49.444;6.862;2024-02-26T01:42:08;96614.16;;;5.37;100.00
60170;BME280;46042;49.444;6.862;2024-02-26T01:44:35;96621.03;;;5.38;100.00
60170;BME280;46042;49.444;6.862;2024-02-26T01:50:23;96600.88;;;5.40;100.00
60170;BME280;46042;49.444;6.862;2024-02-26T01:53:02;96604.19;;;5.42;100.00
60170;BME280;46042;49.444;6.862;2024-02-26T01:55:32;96596.94;;;5.46;100.00
60170;BME280;46042;49.444;6.862;2024-02-26T01:58:01;96586.50;;;5.34;100.00
60170;BME280;46042;49.444;6.862;2024-02-26T02:00:28;96584.38;;;5.28;100.00
60170;BME280;46042;49.444;6.862;2024-02-26T02:03:02;96584.97;;;5.20;100.00
60170;BME280;46042;49.444;6.862;2024-02-26T02:05:31;96581.41;;;5.21;100.00
60170;BME280;46042;49.444;6.862;2024-02-26T02:08:03;96573.47;;;5.23;100.00
60170;BME280;46042;49.444;6.862;2024-02-26T02:10:32;96577.38;;;5.29;100.00
60170;BME280;46042;49.444;6.862;2024-02-26T02:13:05;96579.50;;;5.23;100.00
60170;BME280;46042;49.444;6.862;2024-02-26T02:15:32;96569.41;;;5.19;100.00
60170;BME280;46042;49.444;6.862;2024-02-26T02:18:03;96565.50;;;5.13;100.00
60170;BME280;46042;49.444;6.862;2024-02-26T02:20:35;96566.34;;;5.13;100.00
60170;BME280;46042;49.444;6.862;2024-02-26T02:23:03;96556.25;;;5.09;100.00
60170;BME280;46042;49.444;6.862;2024-02-26T02:25:31;96557.19;;;5.08;100.00
60170;BME280;46042;49.444;6.862;2024-02-26T02:27:58;96559.09;;;4.94;100.00
60170;BME280;46042;49.444;6.862;2024-02-26T02:30:28;96552.09;;;4.95;100.00
60170;BME280;46042;49.444;6.862;2024-02-26T02:32:57;96553.16;;;4.92;100.00
60170;BME280;46042;49.444;6.862;2024-02-26T02:35:26;96545.69;;;4.88;100.00
60170;BME280;46042;49.444;6.862;2024-02-26T02:37:56;96552.22;;;4.93;100.00
60170;BME280;46042;49.444;6.862;2024-02-26T02:40:32;96553.50;;;4.88;100.00
60170;BME280;46042;49.444;6.862;2024-02-26T02:42:59;96563.13;;;4.87;100.00
60170;BME280;46042;49.444;6.862;2024-02-26T02:45:29;96560.25;;;4.79;100.00
60170;BME280;46042;49.444;6.862;2024-02-26T02:47:56;96564.19;;;4.84;100.00
60170;BME280;46042;49.444;6.862;2024-02-26T02:50:24;96568.34;;;4.87;100.00
60170;BME280;46042;49.444;6.862;2024-02-26T02:52:52;96566.94;;;4.83;100.00
60170;BME280;46042;49.444;6.862;2024-02-26T02:55:20;96552.94;;;4.84;100.00
60170;BME280;46042;49.444;6.862;2024-02-26T02:57:53;96562.41;;;4.85;100.00
60170;BME280;46042;49.444;6.862;2024-02-26T03:00:31;96538.34;;;4.81;100.00
60170;BME280;46042;49.444;6.862;2024-02-26T03:03:27;96564.41;;;4.81;100.00
60170;BME280;46042;49.444;6.862;2024-02-26T03:05:59;96561.19;;;4.78;100.00
60170;BME280;46042;49.444;6.862;2024-02-26T03:08:31;96557.44;;;4.82;100.00
60170;BME280;46042;49.444;6.862;2024-02-26T03:11:03;96553.50;;;4.88;100.00
60170;BME280;46042;49.444;6.862;2024-02-26T03:13:36;96548.28;;;4.88;100.00
60170;BME280;46042;49.444;6.862;2024-02-26T03:16:06;96547.38;;;4.89;100.00
60170;BME280;46042;49.444;6.862;2024-02-26T03:18:33;96562.78;;;4.92;100.00
60170;BME280;46042;49.444;6.862;2024-02-26T03:21:11;96562.28;;;4.87;100.00
60170;BME280;46042;49.444;6.862;2024-02-26T03:23:39;96566.69;;;4.86;100.00
60170;BME280;46042;49.444;6.862;2024-02-26T03:26:06;96544.75;;;4.89;100.00
60170;BME280;46042;49.444;6.862;2024-02-26T03:28:33;96553.63;;;4.86;100.00
60170;BME280;46042;49.444;6.862;2024-02-26T03:31:01;96549.97;;;4.89;100.00
60170;BME280;46042;49.444;6.862;2024-02-26T03:33:29;96563.84;;;4.89;100.00
60170;BME280;46042;49.444;6.862;2024-02-26T03:35:57;96553.41;;;4.89;100.00
60170;BME280;46042;49.444;6.862;2024-02-26T03:38:24;96563.22;;;4.86;100.00
60170;BME280;46042;49.444;6.862;2024-02-26T03:40:51;96554.09;;;4.91;100.00
60170;BME280;46042;49.444;6.862;2024-02-26T03:43:18;96570.00;;;4.88;100.00
60170;BME280;46042;49.444;6.862;2024-02-26T03:45:44;96555.31;;;4.87;100.00
60170;BME280;46042;49.444;6.862;2024-02-26T03:48:11;96562.88;;;4.90;100.00
60170;BME280;46042;49.444;6.862;2024-02-26T03:50:38;96580.44;;;4.88;100.00
60170;BME280;46042;49.444;6.862;2024-02-26T03:53:05;96584.59;;;4.91;100.00
60170;BME280;46042;49.444;6.862;2024-02-26T03:55:32;96585.41;;;4.91;100.00
60170;BME280;46042;49.444;6.862;2024-02-26T03:57:59;96572.72;;;4.87;100.00
60170;BME280;46042;49.444;6.862;2024-02-26T04:00:26;96573.47;;;4.89;100.00
60170;BME280;46042;49.444;6.862;2024-02-26T04:02:55;96570.94;;;4.87;100.00
60170;BME280;46042;49.444;6.862;2024-02-26T04:05:26;96568.94;;;4.91;100.00
60170;BME280;46042;49.444;6.862;2024-02-26T04:07:53;96577.97;;;4.98;100.00
60170;BME280;46042;49.444;6.862;2024-02-26T04:10:23;96579.97;;;4.94;100.00
60170;BME280;46042;49.444;6.862;2024-02-26T04:12:50;96580.91;;;4.93;100.00
60170;BME280;46042;49.444;6.862;2024-02-26T04:15:17;96588.16;;;4.90;100.00
60170;BME280;46042;49.444;6.862;2024-02-26T04:17:44;96589.69;;;4.92;100.00
60170;BME280;46042;49.444;6.862;2024-02-26T04:20:15;96591.84;;;4.98;100.00
60170;BME280;46042;49.444;6.862;2024-02-26T04:22:43;96598.97;;;4.96;100.00
60170;BME280;46042;49.444;6.862;2024-02-26T04:25:11;96598.97;;;4.96;100.00
60170;BME280;46042;49.444;6.862;2024-02-26T04:27:38;96597.53;;;5.04;100.00
60170;BME280;46042;49.444;6.862;2024-02-26T04:30:06;96598.97;;;5.08;100.00
60170;BME280;46042;49.444;6.862;2024-02-26T04:32:34;96601.81;;;5.05;100.00
60170;BME280;46042;49.444;6.862;2024-02-26T04:35:02;96602.88;;;5.02;100.00
60170;BME280;46042;49.444;6.862;2024-02-26T04:37:29;96607.13;;;5.03;100.00
60170;BME280;46042;49.444;6.862;2024-02-26T04:39:59;96605.47;;;5.02;100.00
60170;BME280;46042;49.444;6.862;2024-02-26T04:42:26;96608.69;;;5.06;100.00
60170;BME280;46042;49.444;6.862;2024-02-26T04:44:54;96612.47;;;5.02;100.00
60170;BME280;46042;49.444;6.862;2024-02-26T04:47:21;96609.28;;;5.09;100.00
60170;BME280;46042;49.444;6.862;2024-02-26T04:49:49;96608.06;;;5.02;100.00
60170;BME280;46042;49.444;6.862;2024-02-26T04:52:18;96599.31;;;5.03;100.00
60170;BME280;46042;49.444;6.862;2024-02-26T04:54:45;96605.72;;;5.10;100.00
60170;BME280;46042;49.444;6.862;2024-02-26T04:57:12;96602.28;;;5.10;100.00
60170;BME280;46042;49.444;6.862;2024-02-26T04:59:39;96600.75;;;5.07;100.00
60170;BME280;46042;49.444;6.862;2024-02-26T05:02:07;96608.69;;;5.06;100.00
60170;BME280;46042;49.444;6.862;2024-02-26T05:04:34;96603.56;;;5.04;100.00
60170;BME280;46042;49.444;6.862;2024-02-26T05:07:01;96606.31;;;5.03;100.00
60170;BME280;46042;49.444;6.862;2024-02-26T05:09:32;96611.63;;;5.01;100.00
60170;BME280;46042;49.444;6.862;2024-02-26T05:11:59;96603.09;;;4.99;100.00
60170;BME280;46042;49.444;6.862;2024-02-26T05:14:25;96603.72;;;5.03;100.00
60170;BME280;46042;49.444;6.862;2024-02-26T05:16:52;96607.88;;;5.05;100.00
60170;BME280;46042;49.444;6.862;2024-02-26T05:19:25;96606.31;;;5.03;100.00
60170;BME280;46042;49.444;6.862;2024-02-26T05:21:55;96600.03;;;5.05;100.00
60170;BME280;46042;49.444;6.862;2024-02-26T05:24:23;96616.50;;;5.06;100.00
60170;BME280;46042;49.444;6.862;2024-02-26T05:26:50;96612.16;;;5.06;100.00
60170;BME280;46042;49.444;6.862;2024-02-26T05:29:17;96609.75;;;5.03;100.00
60170;BME280;46042;49.444;6.862;2024-02-26T05:31:44;96617.56;;;5.03;100.00
60170;BME280;46042;49.444;6.862;2024-02-26T05:34:14;96617.69;;;5.02;100.00
60170;BME280;46042;49.444;6.862;2024-02-26T05:36:41;96615.69;;;5.05;100.00
60170;BME280;46042;49.444;6.862;2024-02-26T05:39:07;96612.16;;;5.06;100.00
60170;BME280;46042;49.444;6.862;2024-02-26T05:41:40;96614.50;;;5.09;100.00
60170;BME280;46042;49.444;6.862;2024-02-26T05:44:09;96609.63;;;5.05;100.00
60170;BME280;46042;49.444;6.862;2024-02-26T05:46:39;96609.75;;;5.03;100.00
60170;BME280;46042;49.444;6.862;2024-02-26T05:49:06;96608.44;;;4.97;100.00
60170;BME280;46042;49.444;6.862;2024-02-26T05:51:34;96610.94;;;4.99;100.00
60170;BME280;46042;49.444;6.862;2024-02-26T05:54:01;96611.16;;;4.96;100.00
60170;BME280;46042;49.444;6.862;2024-02-26T05:56:27;96611.06;;;4.97;100.00
60170;BME280;46042;49.444;6.862;2024-02-26T05:58:54;96609.41;;;4.96;100.00
60170;BME280;46042;49.444;6.862;2024-02-26T06:01:21;96622.19;;;4.88;100.00
60170;BME280;46042;49.444;6.862;2024-02-26T06:03:48;96618.63;;;4.89;100.00
60170;BME280;46042;49.444;6.862;2024-02-26T06:06:15;96616.97;;;4.88;100.00
60170;BME280;46042;49.444;6.862;2024-02-26T06:08:43;96630.00;;;4.88;100.00
60170;BME280;46042;49.444;6.862;2024-02-26T06:11:10;96632.38;;;4.91;100.00
60170;BME280;46042;49.444;6.862;2024-02-26T06:13:37;96632.88;;;4.96;100.00
60170;BME280;46042;49.444;6.862;2024-02-26T06:16:04;96634.53;;;4.97;100.00
60170;BME280;46042;49.444;6.862;2024-02-26T06:18:31;96642.38;;;4.97;100.00
60170;BME280;46042;49.444;6.862;2024-02-26T06:20:59;96643.66;;;5.03;100.00
60170;BME280;46042;49.444;6.862;2024-02-26T06:23:26;96650.53;;;5.04;100.00
60170;BME280;46042;49.444;6.862;2024-02-26T06:25:56;96651.88;;;4.98;100.00
60170;BME280;46042;49.444;6.862;2024-02-26T06:28:26;96646.66;;;4.98;100.00
60170;BME280;46042;49.444;6.862;2024-02-26T06:30:53;96654.94;;;5.04;100.00
60170;BME280;46042;49.444;6.862;2024-02-26T06:33:19;96655.91;;;5.03;100.00
60170;BME280;46042;49.444;6.862;2024-02-26T06:35:46;96660.41;;;5.01;100.00
60170;BME280;46042;49.444;6.862;2024-02-26T06:38:13;96658.59;;;5.01;100.00
60170;BME280;46042;49.444;6.862;2024-02-26T06:40:40;96661.94;;;5.03;100.00
60170;BME280;46042;49.444;6.862;2024-02-26T06:43:07;96667.91;;;5.05;100.00
60170;BME280;46042;49.444;6.862;2024-02-26T06:45:34;96674.25;;;5.01;100.00
60170;BME280;46042;49.444;6.862;2024-02-26T06:48:01;96680.66;;;4.97;100.00
60170;BME280;46042;49.444;6.862;2024-02-26T06:50:29;96680.09;;;5.05;100.00
60170;BME280;46042;49.444;6.862;2024-02-26T06:52:56;96672.50;;;5.13;100.00
60170;BME280;46042;49.444;6.862;2024-02-26T06:55:23;96666.81;;;5.08;100.00
60170;BME280;46042;49.444;6.862;2024-02-26T06:57:49;96681.84;;;5.04;100.00
60170;BME280;46042;49.444;6.862;2024-02-26T07:00:16;96696.22;;;4.98;100.00
60170;BME280;46042;49.444;6.862;2024-02-26T07:02:43;96689.22;;;4.99;100.00
60170;BME280;46042;49.444;6.862;2024-02-26T07:05:10;96703.34;;;4.96;100.00
60170;BME280;46042;49.444;6.862;2024-02-26T07:07:37;96712.94;;;4.96;100.00
60170;BME280;46042;49.444;6.862;2024-02-26T07:10:05;96713.78;;;4.96;100.00
60170;BME280;46042;49.444;6.862;2024-02-26T07:12:33;96720.66;;;4.97;100.00
60170;BME280;46042;49.444;6.862;2024-02-26T07:15:00;96709.84;;;5.02;100.00
60170;BME280;46042;49.444;6.862;2024-02-26T07:17:27;96728.84;;;5.04;100.00
60170;BME280;46042;49.444;6.862;2024-02-26T07:19:54;96726.84;;;5.08;100.00
60170;BME280;46042;49.444;6.862;2024-02-26T07:22:21;96726.03;;;5.07;100.00
60170;BME280;46042;49.444;6.862;2024-02-26T07:24:49;96740.38;;;5.13;100.00
60170;BME280;46042;49.444;6.862;2024-02-26T07:27:18;96744.28;;;5.07;100.00
60170;BME280;46042;49.444;6.862;2024-02-26T07:29:45;96745.75;;;5.23;100.00
60170;BME280;46042;49.444;6.862;2024-02-26T07:32:11;96749.53;;;5.19;100.00
60170;BME280;46042;49.444;6.862;2024-02-26T07:34:44;96739.94;;;5.19;100.00
60170;BME280;46042;49.444;6.862;2024-02-26T07:37:12;96747.06;;;5.29;100.00
60170;BME280;46042;49.444;6.862;2024-02-26T07:39:39;96748.38;;;5.34;100.00
60170;BME280;46042;49.444;6.862;2024-02-26T07:42:06;96754.22;;;5.38;100.00
60170;BME280;46042;49.444;6.862;2024-02-26T07:44:33;96761.47;;;5.46;100.00
60170;BME280;46042;49.444;6.862;2024-02-26T07:47:00;96766.41;;;5.37;100.00
60170;BME280;46042;49.444;6.862;2024-02-26T07:49:30;96758.25;;;5.42;100.00
60170;BME280;46042;49.444;6.862;2024-02-26T07:51:56;96765.97;;;5.44;100.00
60170;BME280;46042;49.444;6.862;2024-02-26T07:54:25;96766.09;;;5.42;100.00
60170;BME280;46042;49.444;6.862;2024-02-26T07:56:52;96767.25;;;5.38;100.00
60170;BME280;46042;49.444;6.862;2024-02-26T07:59:22;96762.06;;;5.49;100.00
60170;BME280;46042;49.444;6.862;2024-02-26T08:01:50;96763.59;;;5.52;100.00
60170;BME280;46042;49.444;6.862;2024-02-26T08:04:24;96772.88;;;5.56;100.00
60170;BME280;46042;49.444;6.862;2024-02-26T08:06:54;96773.84;;;5.66;100.00
60170;BME280;46042;49.444;6.862;2024-02-26T08:09:21;96777.53;;;5.75;100.00
60170;BME280;46042;49.444;6.862;2024-02-26T08:11:48;96767.91;;;5.87;100.00
60170;BME280;46042;49.444;6.862;2024-02-26T08:14:18;96767.31;;;5.95;100.00
60170;BME280;46042;49.444;6.862;2024-02-26T08:16:47;96774.34;;;5.94;100.00
60170;BME280;46042;49.444;6.862;2024-02-26T08:19:15;96781.00;;;5.98;100.00
60170;BME280;46042;49.444;6.862;2024-02-26T08:21:42;96788.94;;;5.97;100.00
60170;BME280;46042;49.444;6.862;2024-02-26T08:24:09;96787.19;;;5.97;100.00
60170;BME280;46042;49.444;6.862;2024-02-26T08:26:36;96778.78;;;6.05;100.00
60170;BME280;46042;49.444;6.862;2024-02-26T08:29:03;96777.94;;;6.16;100.00
60170;BME280;46042;49.444;6.862;2024-02-26T08:31:30;96780.19;;;6.21;100.00
60170;BME280;46042;49.444;6.862;2024-02-26T08:33:57;96776.84;;;6.30;100.00
60170;BME280;46042;49.444;6.862;2024-02-26T08:36:25;96776.50;;;6.35;100.00
60170;BME280;46042;49.444;6.862;2024-02-26T08:38:55;96779.56;;;6.40;100.00
60170;BME280;46042;49.444;6.862;2024-02-26T08:41:22;96780.63;;;6.49;100.00
60170;BME280;46042;49.444;6.862;2024-02-26T08:43:49;96777.41;;;6.57;100.00
60170;BME280;46042;49.444;6.862;2024-02-26T08:46:16;96783.47;;;6.57;100.00
60170;BME280;46042;49.444;6.862;2024-02-26T08:48:43;96781.81;;;6.56;100.00
60170;BME280;46042;49.444;6.862;2024-02-26T08:51:10;96781.22;;;6.64;100.00
60170;BME280;46042;49.444;6.862;2024-02-26T08:53:37;96784.88;;;6.73;100.00
60170;BME280;46042;49.444;6.862;2024-02-26T08:56:09;96783.06;;;6.73;100.00
60170;BME280;46042;49.444;6.862;2024-02-26T08:58:44;96797.91;;;6.84;100.00
60170;BME280;46042;49.444;6.862;2024-02-26T09:01:12;96804.09;;;6.83;100.00
60170;BME280;46042;49.444;6.862;2024-02-26T09:03:42;96811.50;;;6.78;100.00
60170;BME280;46042;49.444;6.862;2024-02-26T09:06:15;96803.78;;;6.76;100.00
60170;BME280;46042;49.444;6.862;2024-02-26T09:08:42;96816.97;;;6.86;100.00
60170;BME280;46042;49.444;6.862;2024-02-26T09:11:09;96812.38;;;7.00;100.00
60170;BME280;46042;49.444;6.862;2024-02-26T09:13:37;96817.34;;;7.14;100.00
60170;BME280;46042;49.444;6.862;2024-02-26T09:16:05;96819.22;;;7.23;100.00
60170;BME280;46042;49.444;6.862;2024-02-26T09:18:32;96809.06;;;7.30;100.00
60170;BME280;46042;49.444;6.862;2024-02-26T09:20:59;96822.50;;;7.37;100.00
60170;BME280;46042;49.444;6.862;2024-02-26T09:23:26;96821.94;;;7.54;100.00
60170;BME280;46042;49.444;6.862;2024-02-26T09:25:53;96821.47;;;7.49;100.00
60170;BME280;46042;49.444;6.862;2024-02-26T09:28:20;96831.69;;;7.52;100.00
60170;BME280;46042;49.444;6.862;2024-02-26T09:30:46;96827.16;;;7.54;100.00
60170;BME280;46042;49.444;6.862;2024-02-26T09:33:14;96825.75;;;7.50;100.00
60170;BME280;46042;49.444;6.862;2024-02-26T09:35:41;96824.28;;;7.58;100.00
60170;BME280;46042;49.444;6.862;2024-02-26T09:38:08;96823.91;;;7.62;100.00
60170;BME280;46042;49.444;6.862;2024-02-26T09:40:35;96825.50;;;7.75;100.00
60170;BME280;46042;49.444;6.862;2024-02-26T09:43:04;96829.13;;;7.83;100.00
60170;BME280;46042;49.444;6.862;2024-02-26T09:45:33;96835.53;;;7.91;100.00
60170;BME280;46042;49.444;6.862;2024-02-26T09:48:02;96831.38;;;7.88;100.00
60170;BME280;46042;49.444;6.862;2024-02-26T09:50:31;96838.84;;;7.93;100.00
60170;BME280;46042;49.444;6.862;2024-02-26T09:52:59;96846.94;;;8.11;100.00
60170;BME280;46042;49.444;6.862;2024-02-26T09:55:29;96850.03;;;8.16;100.00
60170;BME280;46042;49.444;6.862;2024-02-26T09:57:56;96857.09;;;8.25;100.00
60170;BME280;46042;49.444;6.862;2024-02-26T10:00:27;96857.97;;;8.36;100.00
60170;BME280;46042;49.444;6.862;2024-02-26T10:03:05;96860.72;;;8.56;100.00
60170;BME280;46042;49.444;6.862;2024-02-26T10:05:34;96858.84;;;8.46;100.00
60170;BME280;46042;49.444;6.862;2024-02-26T10:08:02;96856.88;;;8.70;100.00
60170;BME280;46042;49.444;6.862;2024-02-26T10:10:32;96865.22;;;8.85;100.00
60170;BME280;46042;49.444;6.862;2024-02-26T10:13:00;96859.75;;;9.07;100.00
60170;BME280;46042;49.444;6.862;2024-02-26T10:15:27;96851.31;;;9.23;100.00
60170;BME280;46042;49.444;6.862;2024-02-26T10:17:54;96862.38;;;9.47;100.00
60170;BME280;46042;49.444;6.862;2024-02-26T10:20:22;96861.56;;;9.76;100.00
60170;BME280;46042;49.444;6.862;2024-02-26T10:22:51;96854.22;;;9.89;100.00
60170;BME280;46042;49.444;6.862;2024-02-26T10:25:19;96855.47;;;9.56;100.00
60170;BME280;46042;49.444;6.862;2024-02-26T10:27:47;96870.97;;;9.78;100.00
60170;BME280;46042;49.444;6.862;2024-02-26T10:30:20;96866.63;;;10.64;100.00
60170;BME280;46042;49.444;6.862;2024-02-26T10:32:51;96865.38;;;10.87;100.00
60170;BME280;46042;49.444;6.862;2024-02-26T10:35:18;62137.28;;;-147.77;100.00
60170;BME280;46042;49.444;6.862;2024-02-26T10:37:48;62137.28;;;-147.77;100.00
60170;BME280;46042;49.444;6.862;2024-02-26T10:40:16;62137.28;;;-147.77;100.00
60170;BME280;46042;49.444;6.862;2024-02-26T10:42:46;62137.28;;;-147.77;100.00
60170;BME280;46042;49.444;6.862;2024-02-26T10:45:13;62137.28;;;-147.77;100.00
60170;BME280;46042;49.444;6.862;2024-02-26T10:47:40;62137.28;;;-147.77;100.00
60170;BME280;46042;49.444;6.862;2024-02-26T10:50:13;62137.28;;;-147.77;100.00
60170;BME280;46042;49.444;6.862;2024-02-26T10:52:47;62137.28;;;-147.77;100.00
60170;BME280;46042;49.444;6.862;2024-02-26T10:55:16;62137.28;;;-147.77;100.00
60170;BME280;46042;49.444;6.862;2024-02-26T10:57:52;62137.28;;;-147.77;100.00
60170;BME280;46042;49.444;6.862;2024-02-26T11:00:19;62137.28;;;-147.77;100.00
60170;BME280;46042;49.444;6.862;2024-02-26T11:02:47;62137.28;;;-147.77;100.00
60170;BME280;46042;49.444;6.862;2024-02-26T11:05:19;62137.28;;;-147.77;100.00
60170;BME280;46042;49.444;6.862;2024-02-26T11:07:46;62137.28;;;-147.77;100.00
60170;BME280;46042;49.444;6.862;2024-02-26T11:10:18;62137.28;;;-147.77;100.00
60170;BME280;46042;49.444;6.862;2024-02-26T11:12:51;96865.38;;;10.87;100.00
60170;BME280;46042;49.444;6.862;2024-02-26T11:15:19;96917.75;;;11.46;100.00
60170;BME280;46042;49.444;6.862;2024-02-26T11:17:47;96920.97;;;11.40;100.00
60170;BME280;46042;49.444;6.862;2024-02-26T11:20:15;96919.47;;;11.37;100.00
60170;BME280;46042;49.444;6.862;2024-02-26T11:22:47;96916.97;;;11.35;100.00
60170;BME280;46042;49.444;6.862;2024-02-26T11:25:14;96916.09;;;11.45;100.00
60170;BME280;46042;49.444;6.862;2024-02-26T11:27:48;96915.53;;;11.41;100.00
60170;BME280;46042;49.444;6.862;2024-02-26T11:30:17;96922.34;;;11.44;100.00
60170;BME280;46042;49.444;6.862;2024-02-26T11:32:48;96922.25;;;11.53;100.00
60170;BME280;46042;49.444;6.862;2024-02-26T11:35:16;96922.34;;;11.62;100.00
60170;BME280;46042;49.444;6.862;2024-02-26T11:37:54;96928.97;;;11.48;100.00
60170;BME280;46042;49.444;6.862;2024-02-26T11:40:25;96933.69;;;11.26;99.75
60170;BME280;46042;49.444;6.862;2024-02-26T11:42:53;96930.00;;;11.37;100.00
60170;BME280;46042;49.444;6.862;2024-02-26T11:48:16;96927.53;;;11.53;100.00
60170;BME280;46042;49.444;6.862;2024-02-26T11:53:31;96922.97;;;11.74;100.00
60170;BME280;46042;49.444;6.862;2024-02-26T11:58:44;96923.00;;;11.64;99.39
60170;BME280;46042;49.444;6.862;2024-02-26T12:01:36;96933.94;;;11.69;100.00
60170;BME280;46042;49.444;6.862;2024-02-26T12:04:11;96935.16;;;11.57;99.54
60170;BME280;46042;49.444;6.862;2024-02-26T12:09:12;96929.88;;;11.38;98.12
60170;BME280;46042;49.444;6.862;2024-02-26T12:11:42;96940.31;;;11.30;100.00
60170;BME280;46042;49.444;6.862;2024-02-26T12:14:09;96936.75;;;10.93;99.62
60170;BME280;46042;49.444;6.862;2024-02-26T12:16:37;96943.97;;;10.91;99.98
60170;BME280;46042;49.444;6.862;2024-02-26T12:19:06;96947.28;;;10.93;100.00
60170;BME280;46042;49.444;6.862;2024-02-26T12:21:37;96940.28;;;10.84;100.00
60170;BME280;46042;49.444;6.862;2024-02-26T12:24:14;96943.88;;;10.83;100.00
60170;BME280;46042;49.444;6.862;2024-02-26T12:26:42;96941.75;;;10.87;100.00
60170;BME280;46042;49.444;6.862;2024-02-26T12:29:09;96944.47;;;11.05;100.00
60170;BME280;46042;49.444;6.862;2024-02-26T12:31:39;96946.03;;;11.26;100.00
60170;BME280;46042;49.444;6.862;2024-02-26T12:34:07;96941.22;;;11.39;100.00
60170;BME280;46042;49.444;6.862;2024-02-26T12:36:34;96938.53;;;11.31;100.00
60170;BME280;46042;49.444;6.862;2024-02-26T12:39:04;96948.09;;;11.32;100.00
60170;BME280;46042;49.444;6.862;2024-02-26T12:41:35;96942.50;;;11.53;100.00
60170;BME280;46042;49.444;6.862;2024-02-26T12:44:03;96940.41;;;11.57;100.00
60170;BME280;46042;49.444;6.862;2024-02-26T12:46:30;96935.53;;;11.62;100.00
60170;BME280;46042;49.444;6.862;2024-02-26T12:48:58;96946.38;;;11.41;99.47
60170;BME280;46042;49.444;6.862;2024-02-26T12:51:26;96952.13;;;11.26;100.00
60170;BME280;46042;49.444;6.862;2024-02-26T12:53:54;96950.53;;;11.15;100.00
60170;BME280;46042;49.444;6.862;2024-02-26T12:56:22;96950.19;;;11.46;100.00
60170;BME280;46042;49.444;6.862;2024-02-26T12:58:51;96948.19;;;11.94;100.00
60170;BME280;46042;49.444;6.862;2024-02-26T13:01:23;96946.06;;;12.34;99.35
60170;BME280;46042;49.444;6.862;2024-02-26T13:03:51;62137.28;;;-147.77;100.00
60170;BME280;46042;49.444;6.862;2024-02-26T13:06:19;62137.28;;;-147.77;100.00
60170;BME280;46042;49.444;6.862;2024-02-26T13:08:49;96952.47;;;13.79;92.74
60170;BME280;46042;49.444;6.862;2024-02-26T13:11:16;96944.03;;;13.92;93.23
60170;BME280;46042;49.444;6.862;2024-02-26T13:13:47;62137.28;;;-147.77;100.00
60170;BME280;46042;49.444;6.862;2024-02-26T13:16:15;62137.28;;;-147.77;100.00
60170;BME280;46042;49.444;6.862;2024-02-26T13:18:42;62137.28;;;-147.77;100.00